createdAt,value
2023-05-04T00:03:21.285Z,82.06
2023-05-04T00:08:21.135Z,81.30
2023-05-04T00:13:21.034Z,81.96
2023-05-04T00:18:20.875Z,82.68
2023-05-04T00:23:20.857Z,81.75
2023-05-04T00:28:20.932Z,80.88
2023-05-04T00:33:20.860Z,81.75
2023-05-04T00:38:20.775Z,81.44
2023-05-04T00:43:20.534Z,83.07
2023-05-04T00:48:20.508Z,83.07
2023-05-04T00:53:20.487Z,82.51
2023-05-04T00:58:23.381Z,82.45
2023-05-04T01:03:20.396Z,83.42
2023-05-04T01:08:20.359Z,83.28
2023-05-04T01:13:20.985Z,81.89
2023-05-04T01:18:20.214Z,82.24
2023-05-04T01:23:20.220Z,83.42
2023-05-04T01:28:20.116Z,82.65
2023-05-04T01:33:20.203Z,82.65
2023-05-04T01:38:20.246Z,83.07
2023-05-04T01:43:19.888Z,82.86
2023-05-04T01:48:19.764Z,82.34
2023-05-04T01:53:19.612Z,82.45
2023-05-04T01:58:22.586Z,82.34
2023-05-04T02:03:19.822Z,84.33
2023-05-04T02:08:19.476Z,83.63
2023-05-04T02:13:19.364Z,83.36
2023-05-04T02:18:19.483Z,83.77
2023-05-04T02:23:19.346Z,84.12
2023-05-04T02:28:19.352Z,84.60
2023-05-04T02:33:19.136Z,84.39
2023-05-04T02:55:39.068Z,83.04
2023-05-04T03:00:39.127Z,84.68
2023-05-04T03:05:39.006Z,84.01
2023-05-04T03:10:38.809Z,83.81
2023-05-04T03:15:38.798Z,84.05
2023-05-04T03:20:38.728Z,84.99
2023-05-04T03:25:38.652Z,85.44
2023-05-04T03:30:38.630Z,85.20
2023-05-04T03:35:38.578Z,84.47
2023-05-04T03:40:38.573Z,83.81
2023-05-04T03:45:41.514Z,84.37
2023-05-04T03:50:38.564Z,85.55
2023-05-04T03:55:38.430Z,84.08
2023-05-04T04:00:38.293Z,82.14
2023-05-04T04:05:38.382Z,81.30
2023-05-04T04:10:38.175Z,80.40
2023-05-04T04:15:38.126Z,78.02
2023-05-04T04:20:38.094Z,76.70
2023-05-04T04:25:38.126Z,75.60
2023-05-04T04:30:37.794Z,74.08
2023-05-04T04:35:37.995Z,71.82
2023-05-04T04:40:37.758Z,69.29
2023-05-04T04:45:40.845Z,66.76
2023-05-04T04:50:37.553Z,66.96
2023-05-04T04:55:37.559Z,62.88
2023-05-04T05:00:37.649Z,59.23
2023-05-04T05:05:46.932Z,57.86
2023-05-04T05:10:37.238Z,58.89
2023-05-04T05:15:37.464Z,58.96
2023-05-04T05:20:37.171Z,58.83
2023-05-04T05:25:37.107Z,56.24
2023-05-04T05:30:37.205Z,56.50
2023-05-04T05:35:36.947Z,55.10
2023-05-04T05:40:36.831Z,56.60
2023-05-04T05:45:39.982Z,58.93
2023-05-04T05:50:36.999Z,60.05
2023-05-04T05:55:36.670Z,55.68
2023-05-04T06:00:36.572Z,53.83
2023-05-04T06:05:36.566Z,54.00
2023-05-04T06:10:36.750Z,53.98
2023-05-04T06:15:36.481Z,53.47
2023-05-04T06:20:36.381Z,51.09
2023-05-04T06:25:36.315Z,53.45
2023-05-04T06:30:36.222Z,49.05
2023-05-04T06:35:36.307Z,47.69
2023-05-04T06:40:36.045Z,45.90
2023-05-04T06:45:39.097Z,43.79
2023-05-04T06:50:35.941Z,41.71
2023-05-04T06:55:35.893Z,42.54
2023-05-04T07:00:35.813Z,43.60
2023-05-04T07:05:35.868Z,44.01
2023-05-04T07:10:35.840Z,43.48
2023-05-04T07:15:35.719Z,45.01
2023-05-04T07:20:35.675Z,42.61
2023-05-04T07:25:35.706Z,42.27
2023-05-04T07:30:36.596Z,40.59
2023-05-04T07:35:35.602Z,39.57
2023-05-04T07:40:35.263Z,40.37
2023-05-04T07:45:38.318Z,40.79
2023-05-04T07:50:35.235Z,40.99
2023-05-04T07:55:35.114Z,41.97
2023-05-04T08:00:35.219Z,42.80
2023-05-04T08:05:35.355Z,43.44
2023-05-04T08:10:34.960Z,43.84
2023-05-04T08:15:34.955Z,44.59
2023-05-04T08:20:34.857Z,46.75
2023-05-04T08:25:34.835Z,46.29
2023-05-04T08:30:34.775Z,48.61
2023-05-04T08:35:34.747Z,46.77
2023-05-04T08:40:34.770Z,46.12
2023-05-04T08:45:37.529Z,45.12
2023-05-04T08:50:34.532Z,45.16
2023-05-04T08:55:34.457Z,45.32
2023-05-04T09:00:34.385Z,44.11
2023-05-04T09:05:34.386Z,45.57
2023-05-04T09:10:34.252Z,45.79
2023-05-04T09:15:34.133Z,46.62
2023-05-04T09:20:34.020Z,46.10
2023-05-04T09:25:34.300Z,44.19
2023-05-04T09:30:33.897Z,44.59
2023-05-04T09:35:34.535Z,44.75
2023-05-04T09:40:33.791Z,45.12
2023-05-04T09:45:37.828Z,44.45
2023-05-04T09:50:33.862Z,44.57
2023-05-04T09:55:33.694Z,42.60
2023-05-04T10:00:33.497Z,42.30
2023-05-04T10:05:33.594Z,41.83
2023-05-04T10:10:33.325Z,42.24
2023-05-04T10:15:33.471Z,41.69
2023-05-04T10:20:33.180Z,41.23
2023-05-04T10:25:33.200Z,43.56
2023-05-04T10:30:33.133Z,41.63
2023-05-04T10:35:33.052Z,40.03
2023-05-04T10:40:32.939Z,40.55
2023-05-04T10:45:35.994Z,40.37
2023-05-04T10:50:32.827Z,40.48
2023-05-04T10:55:32.845Z,39.84
2023-05-04T11:00:32.820Z,39.86
2023-05-04T11:05:32.728Z,39.62
2023-05-04T11:10:32.719Z,38.15
2023-05-04T11:15:32.507Z,37.11
2023-05-04T11:20:32.432Z,36.75
2023-05-04T11:25:32.451Z,36.88
2023-05-04T11:30:32.304Z,36.65
2023-05-04T11:35:32.413Z,35.33
2023-05-04T11:40:32.217Z,36.29
2023-05-04T11:45:35.198Z,35.24
2023-05-04T11:50:32.016Z,35.05
2023-05-04T11:55:32.002Z,34.94
2023-05-04T12:00:31.955Z,33.01
2023-05-04T12:05:32.104Z,34.36
2023-05-04T12:10:31.804Z,33.33
2023-05-04T12:15:31.869Z,33.53
2023-05-04T12:20:31.627Z,32.42
2023-05-04T12:25:31.640Z,33.54
2023-05-04T12:30:31.497Z,33.65
2023-05-04T12:35:31.513Z,33.48
2023-05-04T12:40:31.461Z,32.45
2023-05-04T12:45:34.429Z,32.02
2023-05-04T12:50:31.327Z,32.73
2023-05-04T12:55:31.356Z,33.20
2023-05-04T13:00:31.095Z,32.68
2023-05-04T13:05:31.108Z,32.27
2023-05-04T13:10:30.992Z,32.77
2023-05-04T13:15:31.101Z,33.01
2023-05-04T13:20:30.863Z,32.90
2023-05-04T13:25:30.916Z,32.59
2023-05-04T13:30:30.746Z,32.52
2023-05-04T13:35:30.932Z,31.82
2023-05-04T13:40:30.788Z,31.63
2023-05-04T13:45:33.590Z,32.93
2023-05-04T13:50:30.666Z,33.56
2023-05-04T13:55:30.428Z,34.05
2023-05-04T14:00:30.324Z,33.28
2023-05-04T14:05:30.372Z,33.38
2023-05-04T14:10:30.221Z,34.68
2023-05-04T14:15:30.165Z,36.06
2023-05-04T14:20:30.091Z,36.79
2023-05-04T14:25:30.095Z,36.06
2023-05-04T14:30:30.148Z,35.85
2023-05-04T14:35:29.963Z,35.99
2023-05-04T14:40:29.922Z,34.76
2023-05-04T14:45:32.835Z,36.15
2023-05-04T14:50:30.029Z,36.99
2023-05-04T14:55:29.745Z,36.16
2023-05-04T15:00:29.557Z,37.23
2023-05-04T15:05:29.753Z,37.26
2023-05-04T15:10:29.584Z,38.09
2023-05-04T15:15:29.358Z,37.18
2023-05-04T15:20:29.453Z,36.52
2023-05-04T15:25:29.415Z,36.09
2023-05-04T15:30:29.322Z,37.64
2023-05-04T15:35:29.167Z,38.79
2023-05-04T15:40:29.133Z,40.83
2023-05-04T15:45:32.194Z,41.85
2023-05-04T15:50:30.041Z,41.17
2023-05-04T15:55:36.308Z,39.79
2023-05-04T16:00:29.060Z,41.46
2023-05-04T16:05:28.762Z,41.24
2023-05-04T16:10:28.688Z,41.25
2023-05-04T16:15:28.696Z,40.25
2023-05-04T16:20:28.891Z,40.28
2023-05-04T16:25:28.437Z,40.43
2023-05-04T16:30:28.383Z,40.23
2023-05-04T16:35:28.356Z,41.13
2023-05-04T16:40:28.404Z,41.29
2023-05-04T16:45:31.928Z,40.75
2023-05-04T16:50:28.305Z,41.77
2023-05-04T16:55:28.082Z,41.47
2023-05-04T17:00:28.253Z,41.60
2023-05-04T17:05:28.029Z,41.69
2023-05-04T17:10:28.124Z,41.21
2023-05-04T17:15:27.823Z,41.11
2023-05-04T17:20:27.768Z,42.24
2023-05-04T17:25:27.720Z,42.83
2023-05-04T17:30:27.687Z,43.56
2023-05-04T17:35:27.674Z,43.58
2023-05-04T17:40:28.126Z,43.66
2023-05-04T17:45:30.627Z,44.10
2023-05-04T17:50:27.413Z,44.63
2023-05-04T17:55:27.433Z,44.32
2023-05-04T18:00:27.263Z,44.63
2023-05-04T18:05:27.308Z,44.85
2023-05-04T18:10:27.085Z,44.85
2023-05-04T18:15:27.181Z,44.97
2023-05-04T18:20:27.009Z,44.79
2023-05-04T18:25:26.910Z,43.76
2023-05-04T18:30:27.940Z,45.47
2023-05-04T18:35:27.075Z,45.82
2023-05-04T18:40:26.771Z,46.85
2023-05-04T18:45:29.795Z,48.61
2023-05-04T18:50:26.597Z,50.90
2023-05-04T18:55:28.399Z,52.26
2023-05-04T19:00:26.446Z,53.70
2023-05-04T19:05:26.535Z,56.21
2023-05-04T19:10:26.458Z,58.31
2023-05-04T19:15:26.311Z,60.30
2023-05-04T19:20:26.360Z,60.22
2023-05-04T19:25:34.103Z,61.07
2023-05-04T19:30:27.092Z,62.32
2023-05-04T19:35:25.922Z,61.71
2023-05-04T19:40:25.994Z,62.45
2023-05-04T19:45:28.903Z,62.85
2023-05-04T19:50:25.875Z,63.39
2023-05-04T19:55:25.961Z,63.09
2023-05-04T20:00:25.661Z,64.98
2023-05-04T20:05:26.814Z,64.87
2023-05-04T20:10:25.589Z,65.92
2023-05-04T20:15:25.507Z,66.27
2023-05-04T20:20:25.468Z,67.01
2023-05-04T20:25:25.430Z,67.01
2023-05-04T20:30:33.335Z,66.06
2023-05-04T20:40:00.287Z,68.67
2023-05-04T20:47:46.096Z,68.70
2023-05-04T20:52:46.081Z,68.80
2023-05-04T20:57:46.056Z,69.96
2023-05-04T21:04:23.308Z,69.79
2023-05-04T21:09:23.320Z,70.20
2023-05-04T21:14:23.156Z,70.20
2023-05-04T21:19:23.085Z,71.36
2023-05-04T21:24:23.181Z,71.25
2023-05-04T21:29:22.886Z,69.56
2023-05-04T21:34:22.872Z,70.92
2023-05-04T21:39:22.796Z,72.31
2023-05-04T21:44:22.779Z,72.17
2023-05-04T21:49:22.604Z,71.87
2023-05-04T21:54:25.827Z,71.97
2023-05-04T21:59:22.522Z,71.97
2023-05-04T22:04:22.564Z,71.22
2023-05-04T22:09:22.382Z,73.27
2023-05-04T22:14:22.359Z,73.13
2023-05-04T22:19:22.211Z,73.47
2023-05-04T22:24:22.864Z,72.82
2023-05-04T22:29:22.075Z,73.36
2023-05-04T22:34:22.100Z,74.08
2023-05-04T22:39:22.258Z,74.08
2023-05-04T22:44:21.978Z,74.66
2023-05-04T22:49:21.861Z,74.97
2023-05-04T22:54:25.018Z,74.94
2023-05-04T22:59:21.752Z,76.34
2023-05-04T23:04:21.786Z,76.68
2023-05-04T23:09:21.686Z,76.99
2023-05-04T23:14:21.692Z,77.09
2023-05-04T23:19:21.626Z,77.74
2023-05-04T23:24:21.403Z,78.05
2023-05-04T23:29:21.386Z,78.02
2023-05-04T23:34:22.037Z,77.09
2023-05-04T23:39:21.231Z,78.46
2023-05-04T23:44:21.177Z,77.74
2023-05-04T23:49:21.072Z,78.39
2023-05-04T23:54:24.128Z,78.16
2023-05-04T23:59:20.955Z,78.16
